createdAt,value
2022-12-25T00:00:40.157Z,9.42
2022-12-25T00:01:40.251Z,9.44
2022-12-25T00:02:45.534Z,9.44
2022-12-25T00:03:39.832Z,9.44
2022-12-25T00:04:40.964Z,9.44
2022-12-25T00:05:41.214Z,9.45
2022-12-25T00:06:41.345Z,9.45
2022-12-25T00:07:39.601Z,9.48
2022-12-25T00:08:42.965Z,9.41
2022-12-25T00:09:42.170Z,9.49
2022-12-25T00:10:45.257Z,9.50
2022-12-25T00:11:41.457Z,9.52
2022-12-25T00:12:42.916Z,9.52
2022-12-25T00:13:41.060Z,9.50
2022-12-25T00:14:40.364Z,9.52
2022-12-25T00:15:42.510Z,9.52
2022-12-25T00:16:41.884Z,9.52
2022-12-25T00:17:39.877Z,9.52
2022-12-25T00:19:05.003Z,9.53
2022-12-25T00:19:41.346Z,9.58
2022-12-25T00:20:39.514Z,9.53
2022-12-25T00:21:43.801Z,9.52
2022-12-25T00:22:46.220Z,9.45
2022-12-25T00:23:46.426Z,9.53
2022-12-25T00:24:43.548Z,9.45
2022-12-25T00:25:40.669Z,9.53
2022-12-25T00:26:42.901Z,9.53
2022-12-25T00:27:43.156Z,9.53
2022-12-25T00:28:41.302Z,9.56
2022-12-25T00:29:41.496Z,9.58
2022-12-25T00:30:39.900Z,9.58
2022-12-25T00:31:42.087Z,9.55
2022-12-25T00:32:40.320Z,9.55
2022-12-25T00:33:39.489Z,9.56
2022-12-25T00:34:40.861Z,9.53
2022-12-25T00:35:44.081Z,9.55
2022-12-25T00:36:41.938Z,9.55
2022-12-25T00:37:43.455Z,9.55
2022-12-25T00:38:40.598Z,9.55
2022-12-25T00:39:39.898Z,9.53
2022-12-25T00:40:40.136Z,9.55
2022-12-25T00:41:39.432Z,9.55
2022-12-25T00:42:40.600Z,9.56
2022-12-25T00:43:39.795Z,9.56
2022-12-25T00:44:40.165Z,9.58
2022-12-25T00:45:43.346Z,9.56
2022-12-25T00:46:39.495Z,9.58
2022-12-25T00:47:39.706Z,9.56
2022-12-25T00:48:40.981Z,9.56
2022-12-25T00:49:40.200Z,9.56
2022-12-25T00:50:42.511Z,9.55
2022-12-25T00:51:39.675Z,9.58
2022-12-25T00:52:41.971Z,9.60
2022-12-25T00:53:42.212Z,9.59
2022-12-25T00:54:39.370Z,9.60
2022-12-25T00:55:40.630Z,9.59
2022-12-25T00:56:39.875Z,9.60
2022-12-25T00:57:39.111Z,9.62
2022-12-25T00:58:39.300Z,9.63
2022-12-25T00:59:42.592Z,9.63
2022-12-25T01:01:09.957Z,9.62
2022-12-25T01:01:39.212Z,9.58
2022-12-25T01:03:11.600Z,9.62
2022-12-25T01:03:39.524Z,9.63
2022-12-25T01:04:38.753Z,9.65
2022-12-25T01:06:10.176Z,9.68
2022-12-25T01:06:39.272Z,9.70
2022-12-25T01:07:45.903Z,9.70
2022-12-25T01:08:38.804Z,9.70
2022-12-25T01:10:10.180Z,9.73
2022-12-25T01:10:39.262Z,9.71
2022-12-25T01:11:40.513Z,9.73
2022-12-25T01:13:09.857Z,9.74
2022-12-25T01:13:38.946Z,9.75
2022-12-25T01:14:39.165Z,9.71
2022-12-25T01:16:09.679Z,9.67
2022-12-25T01:16:38.708Z,9.73
2022-12-25T01:18:12.877Z,9.70
2022-12-25T01:18:39.188Z,9.71
2022-12-25T01:19:40.154Z,9.71
2022-12-25T01:20:54.217Z,9.73
2022-12-25T01:21:38.860Z,9.73
2022-12-25T01:23:10.300Z,9.73
2022-12-25T01:23:39.384Z,9.74
2022-12-25T01:25:06.360Z,9.73
2022-12-25T01:25:38.950Z,9.73
2022-12-25T01:26:41.200Z,9.73
2022-12-25T01:27:39.340Z,9.74
2022-12-25T01:29:05.592Z,9.70
2022-12-25T01:29:38.901Z,9.73
2022-12-25T01:31:10.328Z,9.70
2022-12-25T01:31:39.448Z,9.70
2022-12-25T01:32:38.542Z,9.70
2022-12-25T01:33:39.866Z,9.68
2022-12-25T01:34:39.044Z,9.68
2022-12-25T01:35:39.283Z,9.65
2022-12-25T01:36:38.520Z,9.63
2022-12-25T01:37:38.739Z,9.62
2022-12-25T01:38:40.041Z,9.59
2022-12-25T01:39:39.257Z,9.59
2022-12-25T01:40:39.376Z,9.60
2022-12-25T01:41:38.696Z,9.58
2022-12-25T01:42:38.941Z,9.55
2022-12-25T01:43:40.149Z,9.56
2022-12-25T01:44:38.376Z,9.53
2022-12-25T01:45:39.632Z,9.52
2022-12-25T01:46:39.009Z,9.50
2022-12-25T01:47:38.165Z,9.48
2022-12-25T01:48:38.429Z,9.48
2022-12-25T01:49:38.644Z,9.48
2022-12-25T01:50:38.906Z,9.45
2022-12-25T01:51:39.116Z,9.44
2022-12-25T01:52:38.364Z,9.44
2022-12-25T01:53:39.625Z,9.42
2022-12-25T01:54:45.033Z,9.41
2022-12-25T01:55:39.032Z,9.41
2022-12-25T01:56:46.596Z,9.40
2022-12-25T01:57:38.540Z,9.40
2022-12-25T01:58:40.890Z,9.37
2022-12-25T01:59:38.991Z,9.37
2022-12-25T02:00:38.286Z,9.37
2022-12-25T02:01:39.577Z,9.34
2022-12-25T02:02:39.996Z,9.34
2022-12-25T02:03:40.015Z,9.31
2022-12-25T02:04:38.208Z,9.32
2022-12-25T02:05:52.962Z,9.30
2022-12-25T02:06:38.700Z,9.34
2022-12-25T02:07:37.854Z,9.32
2022-12-25T02:08:40.224Z,9.30
2022-12-25T02:09:38.311Z,9.32
2022-12-25T02:10:39.624Z,9.32
2022-12-25T02:11:39.861Z,9.32
2022-12-25T02:12:38.964Z,9.32
2022-12-25T02:13:38.978Z,9.32
2022-12-25T02:14:38.202Z,9.31
2022-12-25T02:15:38.417Z,9.30
2022-12-25T02:16:58.000Z,9.31
2022-12-25T02:17:39.891Z,9.30
2022-12-25T02:18:38.093Z,9.30
2022-12-25T02:19:38.348Z,9.27
2022-12-25T02:20:38.045Z,9.24
2022-12-25T02:21:40.319Z,9.32
2022-12-25T02:23:10.737Z,9.26
2022-12-25T02:23:37.729Z,9.27
2022-12-25T02:24:37.977Z,9.26
2022-12-25T02:25:39.455Z,9.27
2022-12-25T02:26:38.430Z,9.27
2022-12-25T02:27:37.647Z,9.27
2022-12-25T02:28:37.879Z,9.26
2022-12-25T02:29:39.215Z,9.26
2022-12-25T02:30:39.419Z,9.24
2022-12-25T02:31:39.753Z,9.30
2022-12-25T02:32:38.879Z,9.34
2022-12-25T02:33:39.135Z,9.35
2022-12-25T02:35:09.517Z,9.34
2022-12-25T02:35:37.498Z,9.37
2022-12-25T02:36:37.895Z,9.38
2022-12-25T02:37:38.047Z,9.35
2022-12-25T02:38:38.195Z,9.44
2022-12-25T02:39:38.428Z,9.42
2022-12-25T02:40:37.648Z,9.44
2022-12-25T02:41:37.885Z,9.42
2022-12-25T02:42:38.140Z,9.41
2022-12-25T02:43:38.387Z,9.41
2022-12-25T02:44:37.561Z,9.40
2022-12-25T02:45:38.850Z,9.38
2022-12-25T02:46:38.039Z,9.38
2022-12-25T02:47:39.792Z,9.35
2022-12-25T02:48:38.566Z,9.37
2022-12-25T02:49:37.770Z,9.35
2022-12-25T02:50:39.056Z,9.32
2022-12-25T02:51:38.231Z,9.35
2022-12-25T02:52:37.464Z,9.32
2022-12-25T02:53:37.765Z,9.35
2022-12-25T02:54:37.975Z,9.32
2022-12-25T02:55:38.200Z,9.32
2022-12-25T02:56:38.441Z,9.31
2022-12-25T02:57:40.755Z,9.27
2022-12-25T02:58:37.900Z,9.27
2022-12-25T02:59:38.117Z,9.31
2022-12-25T03:01:05.435Z,9.31
2022-12-25T03:01:38.728Z,9.31
2022-12-25T03:02:37.747Z,9.27
2022-12-25T03:04:02.986Z,9.27
2022-12-25T03:04:37.243Z,9.27
2022-12-25T03:05:37.473Z,9.26
2022-12-25T03:06:37.714Z,9.27
2022-12-25T03:07:37.935Z,9.23
2022-12-25T03:08:37.172Z,9.22
2022-12-25T03:09:38.429Z,9.20
2022-12-25T03:10:39.668Z,9.19
2022-12-25T03:11:39.895Z,9.19
2022-12-25T03:12:40.135Z,9.17
2022-12-25T03:13:41.296Z,9.16
2022-12-25T03:14:38.526Z,9.15
2022-12-25T03:15:37.726Z,9.15
2022-12-25T03:16:37.946Z,9.16
2022-12-25T03:17:37.068Z,9.13
2022-12-25T03:18:38.341Z,9.13
2022-12-25T03:19:37.575Z,9.08
2022-12-25T03:20:39.192Z,9.12
2022-12-25T03:21:37.011Z,9.15
2022-12-25T03:22:39.784Z,9.13
2022-12-25T03:24:27.319Z,9.10
2022-12-25T03:24:37.692Z,9.13
2022-12-25T03:25:36.895Z,9.12
2022-12-25T03:27:03.372Z,9.13
2022-12-25T03:27:39.374Z,9.13
2022-12-25T03:28:37.534Z,9.15
2022-12-25T03:29:39.688Z,9.13
2022-12-25T03:30:36.815Z,9.15
2022-12-25T03:31:37.041Z,9.15
2022-12-25T03:32:44.632Z,9.15
2022-12-25T03:33:45.302Z,9.13
2022-12-25T03:34:37.732Z,9.13
2022-12-25T03:36:02.957Z,9.13
2022-12-25T03:36:37.226Z,9.13
2022-12-25T03:37:37.507Z,9.15
2022-12-25T03:38:36.826Z,9.12
2022-12-25T03:39:40.092Z,9.12
2022-12-25T03:40:38.251Z,9.10
2022-12-25T03:41:39.608Z,9.10
2022-12-25T03:42:37.737Z,9.08
2022-12-25T03:43:36.936Z,9.08
2022-12-25T03:44:37.187Z,9.08
2022-12-25T03:45:37.412Z,9.06
2022-12-25T03:46:37.767Z,9.12
2022-12-25T03:47:36.817Z,9.08
2022-12-25T03:48:38.020Z,9.03
2022-12-25T03:49:37.393Z,9.08
2022-12-25T03:50:37.533Z,9.12
2022-12-25T03:51:36.765Z,9.00
2022-12-25T03:52:36.997Z,9.06
2022-12-25T03:53:37.235Z,9.06
2022-12-25T03:54:37.552Z,9.06
2022-12-25T03:55:36.677Z,9.03
2022-12-25T03:56:36.917Z,9.03
2022-12-25T03:57:38.177Z,9.03
2022-12-25T03:58:37.341Z,9.01
2022-12-25T03:59:36.543Z,9.01
2022-12-25T04:00:36.877Z,9.01
2022-12-25T04:02:16.537Z,9.00
2022-12-25T04:02:37.485Z,9.03
2022-12-25T04:03:36.487Z,9.01
2022-12-25T04:05:16.138Z,9.01
2022-12-25T04:05:36.916Z,9.00
2022-12-25T04:06:37.144Z,9.01
2022-12-25T04:07:37.382Z,9.03
2022-12-25T04:09:02.555Z,9.00
2022-12-25T04:09:36.792Z,9.03
2022-12-25T04:10:43.283Z,9.03
2022-12-25T04:11:36.217Z,9.01
2022-12-25T04:12:37.494Z,9.15
2022-12-25T04:13:36.706Z,9.00
2022-12-25T04:14:39.012Z,9.03
2022-12-25T04:15:37.303Z,9.01
2022-12-25T04:16:36.702Z,9.01
2022-12-25T04:17:37.679Z,8.98
2022-12-25T04:18:36.893Z,9.01
2022-12-25T04:20:16.642Z,9.00
2022-12-25T04:20:36.430Z,9.06
2022-12-25T04:21:36.722Z,9.04
2022-12-25T04:23:11.187Z,9.03
2022-12-25T04:23:36.104Z,9.06
2022-12-25T04:24:36.348Z,9.04
2022-12-25T04:25:36.623Z,9.04
2022-12-25T04:26:36.876Z,9.03
2022-12-25T04:27:37.392Z,9.06
2022-12-25T04:28:36.343Z,9.06
2022-12-25T04:29:36.569Z,9.04
2022-12-25T04:30:43.045Z,9.06
2022-12-25T04:31:43.350Z,9.08
2022-12-25T04:33:02.258Z,9.08
2022-12-25T04:33:36.455Z,9.08
2022-12-25T04:34:37.812Z,9.08
2022-12-25T04:35:36.024Z,9.06
2022-12-25T04:36:36.227Z,9.08
2022-12-25T04:37:42.699Z,9.12
2022-12-25T04:38:37.726Z,9.08
2022-12-25T04:39:36.848Z,9.08
2022-12-25T04:40:36.076Z,9.04
2022-12-25T04:41:36.304Z,9.10
2022-12-25T04:42:36.526Z,9.12
2022-12-25T04:43:36.773Z,9.12
2022-12-25T04:44:37.053Z,9.17
2022-12-25T04:45:36.202Z,9.13
2022-12-25T04:46:36.504Z,9.12
2022-12-25T04:47:36.702Z,9.15
2022-12-25T04:48:35.865Z,9.15
2022-12-25T04:49:36.128Z,9.17
2022-12-25T04:50:36.439Z,9.17
2022-12-25T04:51:36.590Z,9.20
2022-12-25T04:52:35.768Z,9.23
2022-12-25T04:53:40.116Z,9.22
2022-12-25T04:54:36.268Z,9.24
2022-12-25T04:55:36.529Z,9.24
2022-12-25T04:56:45.262Z,9.26
2022-12-25T04:57:36.978Z,9.27
2022-12-25T04:58:43.543Z,9.27
2022-12-25T04:59:37.505Z,9.31
2022-12-25T05:00:36.708Z,9.31
2022-12-25T05:01:37.084Z,9.34
2022-12-25T05:02:37.522Z,9.34
2022-12-25T05:03:36.401Z,9.35
2022-12-25T05:04:35.544Z,9.32
2022-12-25T05:05:36.778Z,9.37
2022-12-25T05:06:38.109Z,9.34
2022-12-25T05:07:36.260Z,9.35
2022-12-25T05:08:36.445Z,9.34
2022-12-25T05:09:35.627Z,9.34
2022-12-25T05:10:36.920Z,9.37
2022-12-25T05:11:38.280Z,9.32
2022-12-25T05:12:50.908Z,9.35
2022-12-25T05:13:35.578Z,9.35
2022-12-25T05:14:35.782Z,9.34
2022-12-25T05:15:36.058Z,9.32
2022-12-25T05:16:36.428Z,9.35
2022-12-25T05:17:35.577Z,9.37
2022-12-25T05:18:35.669Z,9.32
2022-12-25T05:19:35.929Z,9.31
2022-12-25T05:20:39.977Z,9.30
2022-12-25T05:21:36.487Z,9.26
2022-12-25T05:22:37.013Z,9.23
2022-12-25T05:23:35.837Z,9.24
2022-12-25T05:24:36.075Z,9.26
2022-12-25T05:25:35.247Z,9.27
2022-12-25T05:26:50.028Z,9.27
2022-12-25T05:27:35.712Z,9.26
2022-12-25T05:28:36.278Z,9.24
2022-12-25T05:29:50.698Z,9.26
2022-12-25T05:30:37.451Z,9.24
2022-12-25T05:31:35.673Z,9.27
2022-12-25T05:32:50.351Z,9.23
2022-12-25T05:33:36.026Z,9.26
2022-12-25T05:34:35.229Z,9.27
2022-12-25T05:35:49.954Z,9.32
2022-12-25T05:36:36.720Z,9.34
2022-12-25T05:37:36.930Z,9.38
2022-12-25T05:38:37.150Z,9.34
2022-12-25T05:39:35.321Z,9.35
2022-12-25T05:40:35.557Z,9.37
2022-12-25T05:41:35.765Z,9.37
2022-12-25T05:42:35.975Z,9.40
2022-12-25T05:43:35.173Z,9.32
2022-12-25T05:44:35.462Z,9.38
2022-12-25T05:45:35.680Z,9.38
2022-12-25T05:46:35.940Z,9.34
2022-12-25T05:47:35.128Z,9.35
2022-12-25T05:48:49.868Z,9.34
2022-12-25T05:49:35.585Z,9.34
2022-12-25T05:50:35.814Z,9.35
2022-12-25T05:51:36.013Z,9.32
2022-12-25T05:52:35.184Z,9.32
2022-12-25T05:53:35.454Z,9.31
2022-12-25T05:54:35.672Z,9.27
2022-12-25T05:55:35.955Z,9.27
2022-12-25T05:56:35.014Z,9.27
2022-12-25T05:57:35.262Z,9.27
2022-12-25T05:58:36.448Z,9.24
2022-12-25T05:59:35.744Z,9.27
2022-12-25T06:00:35.942Z,9.30
2022-12-25T06:01:35.290Z,9.23
2022-12-25T06:02:35.525Z,9.23
2022-12-25T06:03:35.620Z,9.20
2022-12-25T06:04:35.772Z,9.22
2022-12-25T06:05:34.997Z,9.22
2022-12-25T06:06:35.193Z,9.20
2022-12-25T06:07:35.547Z,9.23
2022-12-25T06:08:35.623Z,9.24
2022-12-25T06:09:34.847Z,9.23
2022-12-25T06:10:34.882Z,9.27
2022-12-25T06:11:35.141Z,9.24
2022-12-25T06:12:35.352Z,9.26
2022-12-25T06:13:35.621Z,9.26
2022-12-25T06:14:36.753Z,9.24
2022-12-25T06:15:35.002Z,9.23
2022-12-25T06:16:38.264Z,9.22
2022-12-25T06:17:40.176Z,9.23
2022-12-25T06:18:34.693Z,9.22
2022-12-25T06:19:35.088Z,9.20
2022-12-25T06:20:35.147Z,9.19
2022-12-25T06:21:35.382Z,9.20
2022-12-25T06:22:34.551Z,9.19
2022-12-25T06:23:35.814Z,9.19
2022-12-25T06:24:36.084Z,9.22
2022-12-25T06:25:35.227Z,9.23
2022-12-25T06:26:35.482Z,9.20
2022-12-25T06:27:34.672Z,9.19
2022-12-25T06:28:34.902Z,9.22
2022-12-25T06:29:35.148Z,9.19
2022-12-25T06:30:35.491Z,9.22
2022-12-25T06:31:34.673Z,9.20
2022-12-25T06:32:34.818Z,9.20
2022-12-25T06:33:35.059Z,9.20
2022-12-25T06:34:36.450Z,9.22
2022-12-25T06:35:35.580Z,9.20
2022-12-25T06:36:34.720Z,9.17
2022-12-25T06:37:35.908Z,9.20
2022-12-25T06:38:35.234Z,9.19
2022-12-25T06:39:34.458Z,9.15
2022-12-25T06:40:34.631Z,9.16
2022-12-25T06:41:34.917Z,9.16
2022-12-25T06:42:49.677Z,9.16
2022-12-25T06:43:35.427Z,9.16
2022-12-25T06:44:34.584Z,9.19
2022-12-25T06:45:49.453Z,9.19
2022-12-25T06:46:50.505Z,9.17
2022-12-25T06:47:35.318Z,9.19
2022-12-25T06:48:34.596Z,9.19
2022-12-25T06:49:36.832Z,9.17
2022-12-25T06:50:34.988Z,9.16
2022-12-25T06:51:36.197Z,9.17
2022-12-25T06:52:34.540Z,9.15
2022-12-25T06:53:40.135Z,9.16
2022-12-25T06:54:34.943Z,9.12
2022-12-25T06:55:34.131Z,9.15
2022-12-25T06:56:36.318Z,9.16
2022-12-25T06:57:36.714Z,9.15
2022-12-25T06:58:34.812Z,9.16
2022-12-25T06:59:35.010Z,9.17
2022-12-25T07:00:34.210Z,9.17
2022-12-25T07:01:34.628Z,9.17
2022-12-25T07:02:34.882Z,9.20
2022-12-25T07:03:34.942Z,9.20
2022-12-25T07:04:35.463Z,9.19
2022-12-25T07:05:34.342Z,9.22
2022-12-25T07:06:34.701Z,9.22
2022-12-25T07:07:34.883Z,9.23
2022-12-25T07:08:34.001Z,9.23
2022-12-25T07:09:34.258Z,9.24
2022-12-25T07:10:35.458Z,9.17
2022-12-25T07:11:35.574Z,9.23
2022-12-25T07:12:33.931Z,9.22
2022-12-25T07:13:34.175Z,9.22
2022-12-25T07:14:35.628Z,9.23
2022-12-25T07:15:34.700Z,9.24
2022-12-25T07:16:34.016Z,9.26
2022-12-25T07:17:34.166Z,9.24
2022-12-25T07:18:35.500Z,9.24
2022-12-25T07:19:38.229Z,9.26
2022-12-25T07:20:34.916Z,9.24
2022-12-25T07:21:36.131Z,9.24
2022-12-25T07:22:41.656Z,9.22
2022-12-25T07:23:49.211Z,9.22
2022-12-25T07:24:34.909Z,9.20
2022-12-25T07:25:37.452Z,9.19
2022-12-25T07:26:34.393Z,9.22
2022-12-25T07:27:33.593Z,9.20
2022-12-25T07:28:48.436Z,9.23
2022-12-25T07:29:35.185Z,9.20
2022-12-25T07:30:34.411Z,9.24
2022-12-25T07:31:35.001Z,9.22
2022-12-25T07:32:33.911Z,9.24
2022-12-25T07:33:37.238Z,9.24
2022-12-25T07:34:35.392Z,9.26
2022-12-25T07:35:34.596Z,9.30
2022-12-25T07:36:34.853Z,9.30
2022-12-25T07:37:35.139Z,9.30
2022-12-25T07:38:35.281Z,9.30
2022-12-25T07:39:34.506Z,9.37
2022-12-25T07:40:33.659Z,9.27
2022-12-25T07:41:33.901Z,9.27
2022-12-25T07:42:35.155Z,9.32
2022-12-25T07:43:34.335Z,9.27
2022-12-25T07:44:34.576Z,9.27
2022-12-25T07:45:33.812Z,9.31
2022-12-25T07:46:59.903Z,9.30
2022-12-25T07:47:34.180Z,9.31
2022-12-25T07:48:34.451Z,9.27
2022-12-25T07:49:34.616Z,9.30
2022-12-25T07:50:33.818Z,9.32
2022-12-25T07:51:34.018Z,9.34
2022-12-25T07:52:39.506Z,9.35
2022-12-25T07:53:34.408Z,9.35
2022-12-25T07:54:34.025Z,9.37
2022-12-25T07:55:34.885Z,9.37
2022-12-25T07:56:34.075Z,9.35
2022-12-25T07:57:35.243Z,9.37
2022-12-25T07:58:33.470Z,9.41
2022-12-25T07:59:33.688Z,9.38
2022-12-25T08:00:34.061Z,9.42
2022-12-25T08:01:34.283Z,9.41
2022-12-25T08:02:33.736Z,9.44
2022-12-25T08:03:34.861Z,9.44
2022-12-25T08:04:33.746Z,9.49
2022-12-25T08:05:33.966Z,9.48
2022-12-25T08:06:33.185Z,9.50
2022-12-25T08:07:36.488Z,9.50
2022-12-25T08:08:33.587Z,9.50
2022-12-25T08:09:34.847Z,9.52
2022-12-25T08:10:35.001Z,9.49
2022-12-25T08:11:33.223Z,9.49
2022-12-25T08:12:33.448Z,9.49
2022-12-25T08:13:33.640Z,9.49
2022-12-25T08:14:33.864Z,9.50
2022-12-25T08:15:34.100Z,9.49
2022-12-25T08:16:34.483Z,9.49
2022-12-25T08:17:36.608Z,9.44
2022-12-25T08:18:33.717Z,9.49
2022-12-25T08:19:35.995Z,9.49
2022-12-25T08:20:36.217Z,9.48
2022-12-25T08:21:36.586Z,9.48
2022-12-25T08:22:36.645Z,9.48
2022-12-25T08:23:36.867Z,9.50
2022-12-25T08:24:59.872Z,9.50
2022-12-25T08:25:33.103Z,9.50
2022-12-25T08:26:33.347Z,9.52
2022-12-25T08:27:48.127Z,9.50
2022-12-25T08:28:33.759Z,9.49
2022-12-25T08:29:32.925Z,9.48
2022-12-25T08:30:36.300Z,9.49
2022-12-25T08:31:34.760Z,9.53
2022-12-25T08:32:35.703Z,9.50
2022-12-25T08:33:32.911Z,9.52
2022-12-25T08:34:34.381Z,9.55
2022-12-25T08:35:34.321Z,9.52
2022-12-25T08:36:34.546Z,9.52
2022-12-25T08:37:33.727Z,9.52
2022-12-25T08:38:35.228Z,9.52
2022-12-25T08:39:47.632Z,9.50
2022-12-25T08:40:47.861Z,9.52
2022-12-25T08:41:33.591Z,9.52
2022-12-25T08:42:32.700Z,9.52
2022-12-25T08:43:33.959Z,9.50
2022-12-25T08:44:35.351Z,9.50
2022-12-25T08:45:59.364Z,9.50
2022-12-25T08:46:32.599Z,9.52
2022-12-25T08:47:35.901Z,9.50
2022-12-25T08:48:32.995Z,9.49
2022-12-25T08:49:58.176Z,9.52
2022-12-25T08:50:33.421Z,9.50
2022-12-25T08:51:33.656Z,9.50
2022-12-25T08:52:34.894Z,9.52
2022-12-25T08:53:58.992Z,9.50
2022-12-25T08:54:33.246Z,9.53
2022-12-25T08:55:33.847Z,9.53
2022-12-25T08:56:32.669Z,9.49
2022-12-25T08:57:33.947Z,9.52
2022-12-25T08:58:58.029Z,9.52
2022-12-25T08:59:33.314Z,9.52
2022-12-25T09:00:33.528Z,9.53
2022-12-25T09:01:32.806Z,9.53
2022-12-25T09:02:36.340Z,9.50
2022-12-25T09:03:35.353Z,9.50
2022-12-25T09:04:32.408Z,9.53
2022-12-25T09:05:33.529Z,9.52
2022-12-25T09:06:32.796Z,9.53
2022-12-25T09:07:32.988Z,9.53
2022-12-25T09:08:33.207Z,9.53
2022-12-25T09:09:32.418Z,9.53
2022-12-25T09:10:35.711Z,9.56
2022-12-25T09:11:32.880Z,9.55
2022-12-25T09:12:35.156Z,9.55
2022-12-25T09:13:34.331Z,9.55
2022-12-25T09:14:32.488Z,9.55
2022-12-25T09:15:58.674Z,9.56
2022-12-25T09:16:32.944Z,9.55
2022-12-25T09:17:32.081Z,9.55
2022-12-25T09:18:32.333Z,9.53
2022-12-25T09:19:32.526Z,9.52
2022-12-25T09:20:32.736Z,9.55
2022-12-25T09:21:35.073Z,9.52
2022-12-25T09:23:11.626Z,9.53
2022-12-25T09:23:33.522Z,9.52
2022-12-25T09:24:32.596Z,9.49
2022-12-25T09:25:39.083Z,9.50
2022-12-25T09:26:32.006Z,9.52
2022-12-25T09:27:32.256Z,9.52
2022-12-25T09:29:08.262Z,9.52
2022-12-25T09:29:32.666Z,9.53
2022-12-25T09:30:32.925Z,9.52
2022-12-25T09:31:47.632Z,9.55
2022-12-25T09:32:32.261Z,9.53
2022-12-25T09:33:32.476Z,9.52
2022-12-25T09:35:00.180Z,9.52
2022-12-25T09:35:31.866Z,9.52
2022-12-25T09:36:32.076Z,9.50
2022-12-25T09:37:32.313Z,9.55
2022-12-25T09:38:32.521Z,9.50
2022-12-25T09:39:35.750Z,9.56
2022-12-25T09:40:43.738Z,9.58
2022-12-25T09:41:41.494Z,9.60
2022-12-25T09:42:46.854Z,9.60
2022-12-25T09:43:32.540Z,9.60
2022-12-25T09:44:32.795Z,9.59
2022-12-25T09:45:32.962Z,9.59
2022-12-25T09:46:37.086Z,9.62
2022-12-25T09:47:33.332Z,9.62
2022-12-25T09:48:34.672Z,9.62
2022-12-25T09:49:31.741Z,9.59
2022-12-25T09:50:39.136Z,9.62
2022-12-25T09:51:35.383Z,9.62
2022-12-25T09:52:33.100Z,9.59
2022-12-25T09:54:12.167Z,9.58
2022-12-25T09:54:31.912Z,9.59
2022-12-25T09:55:32.000Z,9.59
2022-12-25T09:56:32.256Z,9.60
2022-12-25T09:57:39.021Z,9.60
2022-12-25T09:58:32.803Z,9.63
2022-12-25T09:59:32.936Z,9.63
2022-12-25T10:00:32.098Z,9.63
2022-12-25T10:01:32.432Z,9.65
2022-12-25T10:02:32.820Z,9.65
2022-12-25T10:03:33.954Z,9.65
2022-12-25T10:04:47.601Z,9.67
2022-12-25T10:05:33.319Z,9.68
2022-12-25T10:06:33.567Z,9.67
2022-12-25T10:07:31.715Z,9.65
2022-12-25T10:08:32.923Z,9.67
2022-12-25T10:09:32.272Z,9.67
2022-12-25T10:10:34.468Z,9.65
2022-12-25T10:11:33.665Z,9.65
2022-12-25T10:12:31.772Z,9.67
2022-12-25T10:13:39.357Z,9.65
2022-12-25T10:14:33.335Z,9.63
2022-12-25T10:15:33.532Z,9.68
2022-12-25T10:16:31.756Z,9.70
2022-12-25T10:17:31.862Z,9.70
2022-12-25T10:18:32.074Z,9.73
2022-12-25T10:19:38.596Z,9.74
2022-12-25T10:20:32.543Z,9.75
2022-12-25T10:21:33.903Z,9.75
2022-12-25T10:22:31.988Z,9.80
2022-12-25T10:23:32.282Z,9.78
2022-12-25T10:24:31.431Z,9.80
2022-12-25T10:25:32.927Z,9.80
2022-12-25T10:26:31.862Z,9.81
2022-12-25T10:27:33.063Z,9.81
2022-12-25T10:28:32.385Z,9.83
2022-12-25T10:29:33.590Z,9.85
2022-12-25T10:30:31.749Z,9.86
2022-12-25T10:31:32.247Z,9.88
2022-12-25T10:32:31.151Z,9.86
2022-12-25T10:33:31.400Z,9.89
2022-12-25T10:34:31.638Z,9.88
2022-12-25T10:35:31.829Z,9.88
2022-12-25T10:36:31.265Z,9.88
2022-12-25T10:37:31.450Z,9.89
2022-12-25T10:38:33.614Z,9.88
2022-12-25T10:39:33.817Z,9.89
2022-12-25T10:40:32.033Z,9.89
2022-12-25T10:41:32.215Z,9.89
2022-12-25T10:42:33.801Z,9.91
2022-12-25T10:43:32.697Z,9.91
2022-12-25T10:44:32.869Z,9.91
2022-12-25T10:45:32.068Z,9.92
2022-12-25T10:46:31.305Z,9.89
2022-12-25T10:47:32.512Z,9.91
2022-12-25T10:48:56.641Z,9.93
2022-12-25T10:49:30.838Z,9.93
2022-12-25T10:50:32.110Z,9.93
2022-12-25T10:51:31.263Z,9.93
2022-12-25T10:52:32.537Z,9.91
2022-12-25T10:53:31.726Z,9.93
2022-12-25T10:54:30.936Z,9.95
2022-12-25T10:55:34.206Z,9.95
2022-12-25T10:56:32.328Z,9.95
2022-12-25T10:57:32.551Z,9.93
2022-12-25T10:58:31.777Z,9.96
2022-12-25T10:59:31.095Z,9.98
2022-12-25T11:00:31.389Z,10.01
2022-12-25T11:01:57.381Z,10.02
2022-12-25T11:02:31.789Z,10.06
2022-12-25T11:03:30.826Z,10.09
2022-12-25T11:04:30.937Z,10.09
2022-12-25T11:05:31.181Z,10.13
2022-12-25T11:06:31.458Z,10.14
2022-12-25T11:07:32.651Z,10.16
2022-12-25T11:08:30.817Z,10.18
2022-12-25T11:09:32.288Z,10.22
2022-12-25T11:10:31.233Z,10.24
2022-12-25T11:11:31.481Z,10.22
2022-12-25T11:12:32.727Z,10.26
2022-12-25T11:13:31.876Z,10.32
2022-12-25T11:14:31.096Z,10.28
2022-12-25T11:15:31.282Z,10.31
2022-12-25T11:16:32.865Z,10.31
2022-12-25T11:17:32.774Z,10.26
2022-12-25T11:18:30.920Z,10.31
2022-12-25T11:19:32.158Z,10.35
2022-12-25T11:20:32.340Z,10.32
2022-12-25T11:21:33.790Z,10.38
2022-12-25T11:22:32.777Z,10.39
2022-12-25T11:23:30.916Z,10.42
2022-12-25T11:24:31.175Z,10.42
2022-12-25T11:25:37.588Z,10.46
2022-12-25T11:26:30.521Z,10.46
2022-12-25T11:27:30.806Z,10.46
2022-12-25T11:28:31.981Z,10.52
2022-12-25T11:29:37.396Z,10.54
2022-12-25T11:30:32.380Z,10.54
2022-12-25T11:31:32.650Z,10.57
2022-12-25T11:32:32.910Z,10.60
2022-12-25T11:33:31.979Z,10.62
2022-12-25T11:34:31.091Z,10.63
2022-12-25T11:35:31.292Z,10.66
2022-12-25T11:36:30.474Z,10.65
2022-12-25T11:37:30.675Z,10.66
2022-12-25T11:38:33.303Z,10.68
2022-12-25T11:39:32.156Z,10.66
2022-12-25T11:40:32.302Z,10.63
2022-12-25T11:41:32.523Z,10.63
2022-12-25T11:42:46.207Z,10.63
2022-12-25T11:44:00.986Z,10.55
2022-12-25T11:44:31.041Z,10.58
2022-12-25T11:45:30.211Z,10.62
2022-12-25T11:46:30.504Z,10.60
2022-12-25T11:47:45.148Z,10.66
2022-12-25T11:48:31.908Z,10.60
2022-12-25T11:49:30.060Z,10.60
2022-12-25T11:50:32.329Z,10.60
2022-12-25T11:52:23.362Z,10.62
2022-12-25T11:52:30.664Z,10.66
2022-12-25T11:53:30.866Z,10.62
2022-12-25T11:54:32.157Z,10.63
2022-12-25T11:55:30.241Z,10.63
2022-12-25T11:57:00.641Z,10.65
2022-12-25T11:57:30.662Z,10.66
2022-12-25T11:58:31.966Z,10.69
2022-12-25T11:59:30.082Z,10.70
2022-12-25T12:00:58.384Z,10.75
2022-12-25T12:01:32.680Z,10.76
2022-12-25T12:02:30.827Z,10.80
2022-12-25T12:03:57.991Z,10.83
2022-12-25T12:04:38.521Z,10.83
2022-12-25T12:05:31.362Z,10.87
2022-12-25T12:06:36.932Z,10.87
2022-12-25T12:07:55.698Z,10.91
2022-12-25T12:08:29.962Z,10.88
2022-12-25T12:09:31.221Z,10.94
2022-12-25T12:11:02.637Z,10.95
2022-12-25T12:11:30.612Z,10.99
2022-12-25T12:12:29.931Z,11.01
2022-12-25T12:13:34.095Z,11.05
2022-12-25T12:14:31.306Z,11.09
2022-12-25T12:15:32.476Z,11.17
2022-12-25T12:16:33.778Z,11.11
2022-12-25T12:17:29.873Z,11.11
2022-12-25T12:18:56.117Z,11.17
2022-12-25T12:19:30.325Z,11.13
2022-12-25T12:20:30.568Z,11.13
2022-12-25T12:21:32.386Z,11.12
2022-12-25T12:22:29.921Z,11.13
2022-12-25T12:23:32.194Z,11.16
2022-12-25T12:24:30.388Z,11.20
2022-12-25T12:25:30.540Z,11.13
2022-12-25T12:26:29.760Z,11.13
2022-12-25T12:27:29.941Z,11.13
2022-12-25T12:28:30.171Z,11.16
2022-12-25T12:29:30.407Z,11.16
2022-12-25T12:30:36.862Z,11.16
2022-12-25T12:31:29.785Z,11.17
2022-12-25T12:32:33.106Z,11.17
2022-12-25T12:33:30.232Z,11.19
2022-12-25T12:34:30.424Z,11.21
2022-12-25T12:35:30.678Z,11.23
2022-12-25T12:36:36.206Z,11.26
2022-12-25T12:37:31.014Z,11.26
2022-12-25T12:38:30.202Z,11.27
2022-12-25T12:39:29.426Z,11.27
2022-12-25T12:40:30.589Z,11.35
2022-12-25T12:41:29.871Z,11.27
2022-12-25T12:42:31.170Z,11.31
2022-12-25T12:43:30.265Z,11.31
2022-12-25T12:45:20.354Z,11.33
2022-12-25T12:45:29.671Z,11.31
2022-12-25T12:46:58.046Z,11.33
2022-12-25T12:47:30.072Z,11.33
2022-12-25T12:48:29.227Z,11.30
2022-12-25T12:49:30.485Z,11.33
2022-12-25T12:50:29.672Z,11.33
2022-12-25T12:52:02.114Z,11.31
2022-12-25T12:52:30.044Z,11.33
2022-12-25T12:53:29.193Z,11.33
2022-12-25T12:54:57.476Z,11.33
2022-12-25T12:55:29.607Z,11.33
2022-12-25T12:56:29.893Z,11.33
2022-12-25T12:57:30.109Z,11.31
2022-12-25T12:58:29.218Z,11.31
2022-12-25T12:59:30.415Z,11.31
2022-12-25T13:00:29.586Z,11.31
2022-12-25T13:01:30.921Z,11.33
2022-12-25T13:03:03.649Z,11.28
2022-12-25T13:03:29.255Z,11.27
2022-12-25T13:04:29.389Z,11.27
2022-12-25T13:05:34.464Z,11.27
2022-12-25T13:06:30.741Z,11.27
2022-12-25T13:07:56.925Z,11.27
2022-12-25T13:08:29.165Z,11.27
2022-12-25T13:09:29.319Z,11.31
2022-12-25T13:10:29.546Z,11.26
2022-12-25T13:11:29.748Z,11.27
2022-12-25T13:12:29.961Z,11.28
2022-12-25T13:13:29.154Z,11.28